GCN weather

Grand Canyon National Park Airport
Grand Canyon, Arizona, United States

Public forecast

Using degrees Fahrenheit for public forecast. Weather courtesy of forecast.io.

METAR (pilot weather report)

Retrieved 2019/03/26 20:54 UTC (1 hour ago):

KGCN 262054Z 23015G22KT 10SM CLR 18/M07 A3015 RMK AO2 SLP163 T01831067 56012

TAF (pilot weather forecast)

Retrieved 2019/03/26 18:34 UTC (3 hours ago):

TAF KGCN 261731Z 2618/2718 21012G20KT P6SM SCT250 FM270200 21005KT P6SM BKN200 FM271700 21012G20KT P6SM BKN250